createdAt,value
2017-10-07T00:00:50.249Z,11.90
2017-10-07T00:03:18.978Z,12.00
2017-10-07T00:05:46.055Z,12.00
2017-10-07T00:08:17.363Z,12.10
2017-10-07T00:10:46.142Z,12.00
2017-10-07T00:13:17.617Z,12.00
2017-10-07T00:15:50.005Z,12.00
2017-10-07T00:18:30.785Z,12.00
2017-10-07T00:21:03.236Z,12.00
2017-10-07T00:23:43.709Z,12.00
2017-10-07T00:26:10.713Z,12.10
2017-10-07T00:28:40.756Z,12.10
2017-10-07T00:31:20.961Z,12.10
2017-10-07T00:33:51.652Z,12.10
2017-10-07T00:36:27.248Z,12.00
2017-10-07T00:39:00.622Z,12.00
2017-10-07T00:41:30.021Z,12.00
2017-10-07T00:44:08.436Z,11.90
2017-10-07T00:46:41.104Z,11.90
2017-10-07T00:49:08.142Z,11.90
2017-10-07T00:51:48.011Z,11.80
2017-10-07T00:54:18.817Z,11.80
2017-10-07T00:56:56.326Z,11.90
2017-10-07T00:59:43.070Z,11.90
2017-10-07T01:02:09.056Z,11.90
2017-10-07T01:04:50.154Z,11.90
2017-10-07T01:07:21.762Z,11.90
2017-10-07T01:09:51.737Z,11.90
2017-10-07T01:12:21.123Z,11.80
2017-10-07T01:15:01.697Z,11.80
2017-10-07T01:17:35.069Z,11.80
2017-10-07T01:20:05.010Z,11.80
2017-10-07T01:22:31.003Z,11.80
2017-10-07T01:24:57.702Z,11.80
2017-10-07T01:27:30.339Z,11.70
2017-10-07T01:29:58.290Z,11.70
2017-10-07T01:32:45.784Z,11.80
2017-10-07T01:35:15.758Z,11.80
2017-10-07T01:37:53.017Z,11.80
2017-10-07T01:40:29.718Z,11.80
2017-10-07T01:43:06.189Z,11.80
2017-10-07T01:45:50.247Z,11.80
2017-10-07T01:48:27.833Z,11.70
2017-10-07T01:50:57.578Z,11.80
2017-10-07T01:53:30.807Z,11.80
2017-10-07T01:56:01.506Z,11.70
2017-10-07T01:58:35.569Z,11.60
2017-10-07T02:01:26.266Z,11.60
2017-10-07T02:04:04.109Z,11.50
2017-10-07T02:06:31.148Z,11.40
2017-10-07T02:09:07.873Z,11.30
2017-10-07T02:14:26.863Z,11.20
2017-10-07T02:16:54.813Z,11.20
2017-10-07T02:22:24.345Z,11.20
2017-10-07T02:24:54.318Z,11.10
2017-10-07T02:27:21.422Z,11.10
2017-10-07T02:30:02.725Z,11.10
2017-10-07T02:32:32.802Z,11.10
2017-10-07T02:35:00.576Z,11.10
2017-10-07T02:37:30.933Z,11.10
2017-10-07T02:40:08.540Z,11.10
2017-10-07T02:42:42.262Z,11.00
2017-10-07T02:45:15.027Z,11.10
2017-10-07T02:47:41.034Z,11.00
2017-10-07T02:50:19.945Z,10.90
2017-10-07T02:52:46.699Z,10.90
2017-10-07T02:55:12.650Z,10.80
2017-10-07T02:57:47.205Z,10.80
2017-10-07T03:00:13.312Z,10.80
2017-10-07T03:03:01.674Z,10.80
2017-10-07T03:05:35.293Z,10.80
2017-10-07T03:08:01.411Z,10.90
2017-10-07T03:10:27.474Z,10.90
2017-10-07T03:15:53.330Z,10.90
2017-10-07T03:18:30.026Z,11.00
2017-10-07T03:21:02.262Z,11.00
2017-10-07T03:23:34.970Z,11.00
2017-10-07T03:26:01.046Z,10.90
2017-10-07T03:28:37.956Z,11.00
2017-10-07T03:31:14.546Z,11.00
2017-10-07T03:33:41.590Z,10.90
2017-10-07T03:36:20.185Z,11.00
2017-10-07T03:38:50.928Z,10.90
2017-10-07T03:41:27.612Z,10.90
2017-10-07T03:44:01.270Z,11.00
2017-10-07T03:46:33.501Z,11.00
2017-10-07T03:49:06.044Z,11.00
2017-10-07T03:51:39.659Z,11.00
2017-10-07T03:54:13.353Z,11.00
2017-10-07T03:56:45.826Z,11.10
2017-10-07T03:59:11.834Z,11.00
2017-10-07T04:01:38.654Z,11.00
2017-10-07T04:04:09.121Z,11.00
2017-10-07T04:06:42.554Z,11.00
2017-10-07T04:09:14.642Z,11.00
2017-10-07T04:11:51.313Z,10.90
2017-10-07T04:14:20.890Z,11.00
2017-10-07T04:16:57.351Z,10.90
2017-10-07T04:19:30.337Z,10.90
2017-10-07T04:22:05.908Z,10.80
2017-10-07T04:24:44.693Z,10.80
2017-10-07T04:27:11.653Z,10.80
2017-10-07T04:29:47.210Z,10.80
2017-10-07T04:32:27.689Z,10.80
2017-10-07T04:35:02.386Z,10.70
2017-10-07T04:37:34.953Z,10.80
2017-10-07T04:40:01.704Z,10.70
2017-10-07T04:42:32.340Z,10.70
2017-10-07T04:44:59.075Z,10.80
2017-10-07T04:47:30.219Z,10.80
2017-10-07T04:49:59.747Z,10.80
2017-10-07T04:52:26.510Z,10.70
2017-10-07T04:55:00.635Z,10.70
2017-10-07T04:57:28.650Z,10.80
2017-10-07T04:59:54.713Z,10.70
2017-10-07T05:02:31.103Z,10.80
2017-10-07T05:05:07.680Z,10.80
2017-10-07T05:07:51.459Z,10.80
2017-10-07T05:10:24.164Z,10.80
2017-10-07T05:13:06.600Z,10.80
2017-10-07T05:15:38.309Z,10.80
2017-10-07T05:18:06.995Z,10.80
2017-10-07T05:20:47.387Z,10.80
2017-10-07T05:23:28.041Z,10.70
2017-10-07T05:25:55.094Z,10.70
2017-10-07T05:28:33.843Z,10.60
2017-10-07T05:31:06.490Z,10.60
2017-10-07T05:33:38.981Z,10.60
2017-10-07T05:36:12.550Z,10.50
2017-10-07T05:38:47.797Z,10.50
2017-10-07T05:41:26.767Z,10.40
2017-10-07T05:43:53.829Z,10.40
2017-10-07T05:46:26.216Z,10.30
2017-10-07T05:48:59.134Z,10.30
2017-10-07T05:51:33.885Z,10.20
2017-10-07T05:54:19.389Z,10.20
2017-10-07T05:56:55.960Z,10.20
2017-10-07T05:59:21.978Z,10.20
2017-10-07T06:01:49.216Z,10.10
2017-10-07T06:04:18.711Z,10.20
2017-10-07T06:06:48.674Z,10.20
2017-10-07T06:09:15.449Z,10.20
2017-10-07T06:11:41.504Z,10.20
2017-10-07T06:14:23.223Z,10.30
2017-10-07T06:16:49.226Z,10.30
2017-10-07T06:19:24.626Z,10.30
2017-10-07T06:21:50.565Z,10.30
2017-10-07T06:24:27.170Z,10.40
2017-10-07T06:27:07.534Z,10.40
2017-10-07T06:29:48.140Z,10.50
2017-10-07T06:32:38.835Z,10.50
2017-10-07T06:37:58.074Z,10.50
2017-10-07T06:40:35.653Z,10.50
2017-10-07T06:43:22.238Z,10.50
2017-10-07T06:45:53.059Z,10.60
2017-10-07T06:51:36.687Z,10.60
2017-10-07T06:54:10.528Z,10.70
2017-10-07T06:56:44.089Z,10.70
2017-10-07T06:59:10.145Z,10.70
2017-10-07T07:01:53.942Z,10.70
2017-10-07T07:04:26.549Z,10.80
2017-10-07T07:06:54.407Z,10.80
2017-10-07T07:09:35.774Z,10.80
2017-10-07T07:12:01.853Z,10.80
2017-10-07T07:14:41.973Z,10.90
2017-10-07T07:17:12.721Z,10.90
2017-10-07T07:19:42.326Z,10.80
2017-10-07T07:22:27.850Z,10.90
2017-10-07T07:24:53.815Z,10.90
2017-10-07T07:27:37.107Z,10.90
2017-10-07T07:30:05.176Z,10.80
2017-10-07T07:32:33.189Z,10.80
2017-10-07T07:34:59.109Z,10.80
2017-10-07T07:37:42.609Z,10.80
2017-10-07T07:40:35.504Z,10.80
2017-10-07T07:43:03.326Z,11.00
2017-10-07T07:45:32.985Z,11.00
2017-10-07T07:48:00.970Z,11.10
2017-10-07T07:50:27.646Z,11.30
2017-10-07T07:52:53.616Z,11.20
2017-10-07T07:55:19.645Z,11.40
2017-10-07T07:57:45.783Z,11.60
2017-10-07T08:00:11.774Z,11.60
2017-10-07T08:02:37.715Z,11.60
2017-10-07T08:05:03.736Z,11.70
2017-10-07T08:07:34.306Z,11.60
2017-10-07T08:10:00.232Z,11.60
2017-10-07T08:12:26.170Z,11.60
2017-10-07T08:14:59.418Z,11.40
2017-10-07T08:17:31.108Z,11.30
2017-10-07T08:19:58.704Z,11.20
2017-10-07T08:22:25.379Z,11.20
2017-10-07T08:24:51.324Z,11.20
2017-10-07T08:27:17.278Z,11.30
2017-10-07T08:29:44.021Z,11.00
2017-10-07T08:32:09.969Z,11.00
2017-10-07T08:34:36.655Z,11.00
2017-10-07T08:37:02.613Z,11.00
2017-10-07T08:39:28.560Z,11.10
2017-10-07T08:41:59.047Z,11.20
2017-10-07T08:44:25.037Z,11.20
2017-10-07T08:46:51.729Z,11.10
2017-10-07T08:49:17.730Z,11.10
2017-10-07T08:51:43.758Z,11.10
2017-10-07T08:54:09.677Z,11.20
2017-10-07T08:56:35.620Z,11.10
2017-10-07T08:59:01.632Z,11.10
2017-10-07T09:01:27.578Z,11.20
2017-10-07T09:03:53.514Z,11.20
2017-10-07T09:06:19.493Z,11.30
2017-10-07T09:08:46.222Z,11.50
2017-10-07T09:11:12.265Z,11.40
2017-10-07T09:13:42.721Z,11.60
2017-10-07T09:16:19.181Z,11.60
2017-10-07T09:18:45.903Z,11.60
2017-10-07T09:21:12.650Z,11.70
2017-10-07T09:23:42.022Z,11.60
2017-10-07T09:26:08.705Z,11.80
2017-10-07T09:51:23.405Z,12.20
2017-10-07T09:53:52.680Z,12.20
2017-10-07T09:56:18.615Z,12.20
2017-10-07T09:58:44.537Z,12.10
2017-10-07T10:01:10.530Z,12.20
2017-10-07T10:03:37.263Z,12.20
2017-10-07T10:06:03.389Z,12.20
2017-10-07T10:08:32.905Z,12.20
2017-10-07T10:11:05.649Z,12.10
2017-10-07T10:13:43.206Z,12.00
2017-10-07T10:16:20.179Z,12.00
2017-10-07T10:18:49.749Z,12.10
2017-10-07T10:21:22.169Z,12.10
2017-10-07T10:24:11.864Z,12.20
2017-10-07T10:26:59.509Z,12.20
2017-10-07T10:29:33.411Z,12.30
2017-10-07T10:32:03.427Z,12.40
2017-10-07T10:34:47.160Z,12.40
2017-10-07T10:37:20.010Z,12.40
2017-10-07T10:39:49.565Z,12.40
2017-10-07T10:42:17.522Z,12.50
2017-10-07T10:44:47.109Z,12.50
2017-10-07T10:47:16.833Z,12.50
2017-10-07T10:49:46.306Z,12.60
2017-10-07T10:52:16.255Z,12.80
2017-10-07T10:54:42.299Z,12.70
2017-10-07T10:57:08.286Z,12.70
2017-10-07T10:59:41.689Z,12.80
2017-10-07T11:02:12.421Z,12.90
2017-10-07T11:04:39.069Z,13.00
2017-10-07T11:07:09.606Z,13.00
2017-10-07T11:09:36.342Z,13.10
2017-10-07T11:12:03.030Z,13.40
2017-10-07T11:14:29.006Z,13.40
2017-10-07T11:16:54.938Z,13.90
2017-10-07T11:19:20.866Z,14.20
2017-10-07T11:24:15.896Z,15.30
2017-10-07T11:27:01.610Z,15.40
2017-10-07T11:29:27.561Z,15.40
2017-10-07T11:32:57.532Z,15.00
2017-10-07T11:35:26.685Z,15.00
2017-10-07T11:38:01.031Z,14.70
2017-10-07T11:40:27.042Z,14.60
2017-10-07T11:43:04.767Z,14.30
2017-10-07T11:45:39.475Z,14.10
2017-10-07T11:48:06.216Z,14.20
2017-10-07T11:50:33.265Z,14.10
2017-10-07T11:53:03.181Z,14.00
2017-10-07T11:55:31.897Z,14.10
2017-10-07T11:58:01.246Z,14.10
2017-10-07T12:00:30.702Z,13.90
2017-10-07T12:03:04.357Z,13.90
2017-10-07T12:05:41.268Z,13.80
2017-10-07T12:08:15.688Z,13.80
2017-10-07T12:10:42.419Z,13.80
2017-10-07T12:13:12.642Z,13.70
2017-10-07T12:15:38.618Z,13.80
2017-10-07T12:18:04.579Z,13.60
2017-10-07T12:20:30.622Z,13.60
2017-10-07T12:22:57.330Z,13.50
2017-10-07T12:25:23.420Z,13.50
2017-10-07T12:27:50.098Z,13.50
2017-10-07T12:30:16.038Z,13.50
2017-10-07T12:32:41.982Z,13.40
2017-10-07T12:35:07.913Z,13.30
2017-10-07T12:37:33.890Z,13.30
2017-10-07T12:39:59.850Z,13.30
2017-10-07T12:42:26.126Z,13.40
2017-10-07T12:44:52.082Z,13.50
2017-10-07T12:47:18.024Z,13.50
2017-10-07T12:49:43.977Z,13.50
2017-10-07T12:52:09.919Z,13.50
2017-10-07T12:54:35.864Z,13.50
2017-10-07T12:58:53.738Z,13.50
2017-10-07T13:01:19.653Z,13.50
2017-10-07T13:03:45.606Z,13.50
2017-10-07T13:06:12.293Z,13.50
2017-10-07T13:08:38.283Z,13.40
2017-10-07T13:11:04.945Z,13.40
2017-10-07T13:13:30.922Z,13.40
2017-10-07T13:15:56.908Z,13.50
2017-10-07T13:18:22.861Z,13.50
2017-10-07T13:20:48.829Z,13.50
2017-10-07T13:23:18.921Z,13.30
2017-10-07T13:25:44.850Z,13.30
2017-10-07T13:28:10.937Z,13.40
2017-10-07T13:30:36.917Z,13.40
2017-10-07T13:33:03.919Z,13.40
2017-10-07T13:35:29.856Z,13.40
2017-10-07T13:37:55.782Z,13.30
2017-10-07T13:40:21.717Z,13.30
2017-10-07T13:42:47.652Z,13.30
2017-10-07T13:45:13.994Z,13.30
2017-10-07T13:47:40.052Z,13.20
2017-10-07T13:50:05.991Z,13.00
2017-10-07T13:52:31.959Z,12.90
2017-10-07T13:54:58.072Z,12.70
2017-10-07T13:57:25.128Z,12.70
2017-10-07T13:59:51.165Z,12.70
2017-10-07T14:02:17.173Z,12.80
2017-10-07T14:04:43.850Z,13.00
2017-10-07T14:07:20.681Z,13.00
2017-10-07T14:09:53.085Z,13.00
2017-10-07T14:12:19.010Z,13.10
2017-10-07T14:14:56.001Z,13.10
2017-10-07T14:17:21.913Z,13.20
2017-10-07T14:19:47.839Z,13.20
2017-10-07T14:22:14.565Z,13.20
2017-10-07T14:24:43.277Z,13.20
2017-10-07T14:27:09.213Z,13.20
2017-10-07T14:29:35.134Z,13.20
2017-10-07T14:32:01.056Z,13.20
2017-10-07T14:34:27.731Z,13.20
2017-10-07T14:36:57.046Z,13.20
2017-10-07T14:39:22.973Z,13.20
2017-10-07T14:41:48.911Z,13.20
2017-10-07T14:44:14.846Z,13.20
2017-10-07T14:46:40.819Z,13.10
2017-10-07T14:49:06.759Z,13.10
2017-10-07T14:51:32.821Z,13.20
2017-10-07T14:53:58.775Z,13.30
2017-10-07T14:56:24.705Z,13.20
2017-10-07T14:58:50.626Z,13.20
2017-10-07T15:01:19.707Z,13.10
2017-10-07T15:03:45.709Z,13.10
2017-10-07T15:06:11.672Z,13.10
2017-10-07T15:08:37.591Z,13.10
2017-10-07T15:11:03.537Z,13.00
2017-10-07T16:03:13.601Z,12.50
2017-10-07T16:05:39.809Z,12.50
2017-10-07T16:08:05.792Z,12.50
2017-10-07T16:10:35.747Z,12.50
2017-10-07T16:13:02.747Z,12.50
2017-10-07T16:15:33.386Z,12.40
2017-10-07T16:18:00.118Z,12.40
2017-10-07T16:20:38.965Z,12.40
2017-10-07T16:23:12.458Z,12.40
2017-10-07T16:25:39.213Z,12.40
2017-10-07T16:28:15.467Z,12.40
2017-10-07T16:30:42.205Z,12.40
2017-10-07T16:35:37.068Z,12.40
2017-10-07T16:38:03.025Z,12.40
2017-10-07T16:40:28.977Z,12.40
2017-10-07T16:42:55.060Z,12.40
2017-10-07T16:45:28.921Z,12.40
2017-10-07T16:47:54.881Z,12.40
2017-10-07T16:50:20.831Z,12.40
2017-10-07T16:52:46.753Z,12.40
2017-10-07T16:55:12.682Z,12.40
2017-10-07T16:57:38.645Z,12.40
2017-10-07T17:00:04.634Z,12.40
2017-10-07T17:02:30.566Z,12.30
2017-10-07T17:04:57.520Z,12.20
2017-10-07T17:07:23.509Z,12.10
2017-10-07T17:09:50.201Z,11.90
2017-10-07T17:12:16.164Z,11.90
2017-10-07T17:14:42.108Z,11.80
2017-10-07T17:17:12.234Z,11.60
2017-10-07T17:19:40.003Z,11.40
2017-10-07T17:22:09.998Z,11.30
2017-10-07T17:24:36.017Z,11.30
2017-10-07T17:27:02.064Z,11.30
2017-10-07T17:29:29.813Z,11.30
2017-10-07T17:31:57.814Z,11.30
2017-10-07T17:34:24.721Z,11.30
2017-10-07T17:36:52.711Z,11.30
2017-10-07T17:39:18.773Z,11.30
2017-10-07T17:41:46.119Z,11.30
2017-10-07T17:44:18.925Z,11.30
2017-10-07T17:46:44.918Z,11.30
2017-10-07T17:49:10.965Z,11.40
2017-10-07T17:51:41.990Z,11.40
2017-10-07T17:54:14.686Z,11.40
2017-10-07T17:56:44.285Z,11.50
2017-10-07T17:59:20.681Z,11.50
2017-10-07T18:01:58.173Z,11.60
2017-10-07T18:04:24.099Z,11.60
2017-10-07T18:06:58.626Z,11.70
2017-10-07T18:09:31.988Z,11.70
2017-10-07T18:12:02.317Z,11.80
2017-10-07T18:14:28.349Z,11.80
2017-10-07T18:16:59.394Z,11.90
2017-10-07T18:19:25.371Z,11.90
2017-10-07T18:22:04.486Z,11.90
2017-10-07T18:24:30.499Z,11.90
2017-10-07T18:27:07.574Z,12.00
2017-10-07T18:29:44.054Z,12.00
2017-10-07T18:32:10.729Z,12.10
2017-10-07T18:34:44.811Z,12.10
2017-10-07T18:37:13.564Z,12.20
2017-10-07T18:39:50.004Z,12.10
2017-10-07T18:42:19.461Z,12.20
2017-10-07T18:44:51.941Z,12.10
2017-10-07T18:47:31.585Z,12.20
2017-10-07T18:50:19.175Z,12.20
2017-10-07T18:52:45.217Z,12.20
2017-10-07T18:55:11.245Z,12.20
2017-10-07T18:57:37.353Z,12.20
2017-10-07T19:00:04.329Z,12.20
2017-10-07T19:02:40.689Z,12.20
2017-10-07T19:05:06.733Z,12.10
2017-10-07T19:07:34.789Z,12.10
2017-10-07T19:10:00.864Z,12.10
2017-10-07T19:12:28.186Z,12.10
2017-10-07T19:14:54.229Z,12.10
2017-10-07T19:17:26.186Z,12.20
2017-10-07T19:19:52.246Z,12.10
2017-10-07T19:22:18.170Z,12.20
2017-10-07T19:24:45.949Z,12.20
2017-10-07T19:27:12.020Z,12.20
2017-10-07T19:29:52.086Z,12.20
2017-10-07T19:32:18.110Z,12.20
2017-10-07T19:34:44.087Z,12.20
2017-10-07T19:37:14.023Z,12.20
2017-10-07T19:39:42.082Z,12.20
2017-10-07T19:42:12.712Z,12.20
2017-10-07T19:44:42.130Z,12.20
2017-10-07T19:47:12.491Z,12.10
2017-10-07T19:49:42.944Z,12.10
2017-10-07T19:55:02.220Z,12.20
2017-10-07T19:57:28.241Z,12.10
2017-10-07T20:00:08.285Z,12.10
2017-10-07T20:05:29.418Z,12.00
2017-10-07T20:07:55.342Z,12.00
2017-10-07T20:10:36.670Z,12.00
2017-10-07T20:13:16.211Z,12.00
2017-10-07T20:15:44.237Z,12.00
2017-10-07T20:18:10.258Z,12.00
2017-10-07T20:20:36.309Z,12.00
2017-10-07T20:25:56.063Z,12.00
2017-10-07T20:28:37.413Z,12.00
2017-10-07T20:31:11.304Z,12.00
2017-10-07T20:33:43.765Z,11.90
2017-10-07T20:36:11.526Z,11.90
2017-10-07T20:41:34.998Z,11.90
2017-10-07T20:46:53.856Z,11.90
2017-10-07T20:49:19.901Z,11.80
2017-10-07T20:51:58.333Z,11.80
2017-10-07T20:54:27.100Z,11.80
2017-10-07T20:56:53.141Z,11.80
2017-10-07T20:59:20.124Z,11.80
2017-10-07T21:01:48.161Z,11.70
2017-10-07T21:04:17.705Z,11.50
2017-10-07T21:06:43.683Z,11.40
2017-10-07T21:09:16.498Z,11.20
2017-10-07T21:11:48.034Z,11.00
2017-10-07T21:14:15.022Z,11.00
2017-10-07T21:16:40.959Z,11.00
2017-10-07T21:19:24.288Z,11.00
2017-10-07T21:21:50.362Z,11.00
2017-10-07T21:24:16.425Z,11.10
2017-10-07T21:26:55.452Z,11.20
2017-10-07T21:29:38.986Z,11.20
2017-10-07T21:32:08.869Z,11.30
2017-10-07T21:34:46.384Z,11.30
2017-10-07T21:37:24.090Z,11.40
2017-10-07T21:42:57.394Z,11.50
2017-10-07T21:45:23.337Z,11.60
2017-10-07T21:47:50.358Z,11.60
2017-10-07T21:53:10.585Z,11.60
2017-10-07T21:55:40.083Z,11.70
2017-10-07T21:58:21.427Z,11.80
2017-10-07T22:01:12.086Z,11.80
2017-10-07T22:03:48.726Z,11.80
2017-10-07T22:06:26.403Z,11.80
2017-10-07T22:09:07.604Z,11.80
2017-10-07T22:11:47.911Z,11.80
2017-10-07T22:14:29.449Z,11.80
2017-10-07T22:17:06.343Z,11.80
2017-10-07T22:19:42.562Z,11.80
2017-10-07T22:22:09.345Z,11.80
2017-10-07T22:24:37.358Z,11.80
2017-10-07T22:27:04.733Z,11.80
2017-10-07T22:32:38.865Z,11.90
2017-10-07T22:35:06.615Z,11.90
2017-10-07T22:37:34.378Z,11.90
2017-10-07T22:40:07.631Z,11.90
2017-10-07T22:42:42.104Z,11.90
2017-10-07T22:45:15.749Z,12.00
2017-10-07T22:47:52.391Z,11.90
2017-10-07T22:50:22.218Z,11.90
2017-10-07T22:53:09.370Z,11.90
2017-10-07T22:55:51.109Z,12.00
2017-10-07T22:58:24.722Z,12.00
2017-10-07T23:00:54.503Z,12.00
2017-10-07T23:06:15.522Z,12.00
2017-10-07T23:08:49.954Z,11.80
2017-10-07T23:11:16.646Z,11.80
2017-10-07T23:14:07.138Z,11.70
2017-10-07T23:16:33.105Z,11.70
2017-10-07T23:19:03.723Z,11.60
2017-10-07T23:21:29.769Z,11.60
2017-10-07T23:24:08.245Z,11.60
2017-10-07T23:29:44.731Z,11.70
2017-10-07T23:32:10.802Z,11.60
2017-10-07T23:34:50.551Z,11.50
2017-10-07T23:37:29.683Z,11.50
2017-10-07T23:40:03.033Z,11.40
2017-10-07T23:42:43.890Z,11.40
2017-10-07T23:45:14.446Z,11.40
2017-10-07T23:47:40.486Z,11.50
2017-10-07T23:50:09.268Z,11.50
2017-10-07T23:52:38.653Z,11.40
2017-10-07T23:55:04.589Z,11.40
2017-10-07T23:57:30.613Z,11.40
